sensor_id;sensor_type;location;lat;lon;timestamp;pressure;altitude;pressure_sealevel;temperature;humidity
54389;BME280;40975;50.390;8.640;2022-10-16T00:00:54;98783.50;;;11.04;100.00
54389;BME280;40975;50.390;8.640;2022-10-16T00:03:19;98804.63;;;11.14;100.00
54389;BME280;40975;50.390;8.640;2022-10-16T00:05:44;98822.03;;;11.08;100.00
54389;BME280;40975;50.390;8.640;2022-10-16T00:08:11;98813.75;;;11.11;100.00
54389;BME280;40975;50.390;8.640;2022-10-16T00:10:37;98829.69;;;11.11;100.00
54389;BME280;40975;50.390;8.640;2022-10-16T00:13:03;98813.38;;;11.06;100.00
54389;BME280;40975;50.390;8.640;2022-10-16T00:15:30;98815.91;;;11.08;100.00
54389;BME280;40975;50.390;8.640;2022-10-16T00:17:55;98825.50;;;11.09;100.00
54389;BME280;40975;50.390;8.640;2022-10-16T00:20:20;98809.06;;;11.05;100.00
54389;BME280;40975;50.390;8.640;2022-10-16T00:22:46;98818.69;;;11.06;100.00
54389;BME280;40975;50.390;8.640;2022-10-16T00:25:11;98810.91;;;11.04;100.00
54389;BME280;40975;50.390;8.640;2022-10-16T00:27:36;98815.34;;;11.04;100.00
54389;BME280;40975;50.390;8.640;2022-10-16T00:30:02;98809.69;;;10.99;100.00
54389;BME280;40975;50.390;8.640;2022-10-16T00:32:28;98822.97;;;10.99;100.00
54389;BME280;40975;50.390;8.640;2022-10-16T00:34:53;98831.75;;;10.99;100.00
54389;BME280;40975;50.390;8.640;2022-10-16T00:37:20;98832.44;;;11.01;100.00
54389;BME280;40975;50.390;8.640;2022-10-16T00:39:46;98824.31;;;11.03;100.00
54389;BME280;40975;50.390;8.640;2022-10-16T00:42:16;98820.66;;;11.04;100.00
54389;BME280;40975;50.390;8.640;2022-10-16T00:44:46;98805.88;;;11.01;100.00
54389;BME280;40975;50.390;8.640;2022-10-16T00:47:17;98811.50;;;10.98;100.00
54389;BME280;40975;50.390;8.640;2022-10-16T00:49:43;98819.16;;;11.01;100.00
54389;BME280;40975;50.390;8.640;2022-10-16T00:52:09;98825.63;;;10.99;100.00
54389;BME280;40975;50.390;8.640;2022-10-16T00:54:35;98825.25;;;10.94;100.00
54389;BME280;40975;50.390;8.640;2022-10-16T00:57:03;98822.97;;;10.99;100.00
54389;BME280;40975;50.390;8.640;2022-10-16T00:59:33;98819.63;;;10.97;100.00
54389;BME280;40975;50.390;8.640;2022-10-16T01:02:00;98816.31;;;10.95;100.00
54389;BME280;40975;50.390;8.640;2022-10-16T01:04:26;98828.28;;;10.99;100.00
54389;BME280;40975;50.390;8.640;2022-10-16T01:07:07;98829.63;;;11.03;100.00
54389;BME280;40975;50.390;8.640;2022-10-16T01:12:17;98840.94;;;11.05;100.00
54389;BME280;40975;50.390;8.640;2022-10-16T01:14:59;98843.78;;;11.12;100.00
54389;BME280;40975;50.390;8.640;2022-10-16T01:22:43;98853.13;;;11.16;100.00
54389;BME280;40975;50.390;8.640;2022-10-16T01:25:25;98849.63;;;11.15;100.00
54389;BME280;40975;50.390;8.640;2022-10-16T01:27:53;98858.44;;;11.16;100.00
54389;BME280;40975;50.390;8.640;2022-10-16T01:30:26;98862.91;;;11.15;100.00
54389;BME280;40975;50.390;8.640;2022-10-16T01:32:57;98856.59;;;11.16;100.00
54389;BME280;40975;50.390;8.640;2022-10-16T01:35:38;98841.34;;;11.18;100.00
54389;BME280;40975;50.390;8.640;2022-10-16T01:38:11;98820.28;;;11.17;100.00
54389;BME280;40975;50.390;8.640;2022-10-16T01:40:42;98851.66;;;11.22;100.00
54389;BME280;40975;50.390;8.640;2022-10-16T01:43:19;98859.97;;;11.27;100.00
54389;BME280;40975;50.390;8.640;2022-10-16T01:45:47;98846.88;;;11.25;100.00
54389;BME280;40975;50.390;8.640;2022-10-16T01:48:14;98861.47;;;11.29;100.00
54389;BME280;40975;50.390;8.640;2022-10-16T01:50:43;98847.56;;;11.27;100.00
54389;BME280;40975;50.390;8.640;2022-10-16T01:53:12;98834.91;;;11.29;100.00
54389;BME280;40975;50.390;8.640;2022-10-16T01:55:43;98832.94;;;11.31;100.00
54389;BME280;40975;50.390;8.640;2022-10-16T01:58:11;98836.44;;;11.32;100.00
54389;BME280;40975;50.390;8.640;2022-10-16T02:00:38;98833.25;;;11.28;100.00
54389;BME280;40975;50.390;8.640;2022-10-16T02:03:06;98834.44;;;11.34;100.00
54389;BME280;40975;50.390;8.640;2022-10-16T02:05:38;98852.53;;;11.30;100.00
54389;BME280;40975;50.390;8.640;2022-10-16T02:08:06;98861.34;;;11.31;100.00
54389;BME280;40975;50.390;8.640;2022-10-16T02:10:32;98864.00;;;11.31;100.00
54389;BME280;40975;50.390;8.640;2022-10-16T02:13:05;98866.66;;;11.31;100.00
54389;BME280;40975;50.390;8.640;2022-10-16T02:15:31;98868.16;;;11.33;100.00
54389;BME280;40975;50.390;8.640;2022-10-16T02:17:56;98863.66;;;11.34;100.00
54389;BME280;40975;50.390;8.640;2022-10-16T02:20:25;98860.38;;;11.32;100.00
54389;BME280;40975;50.390;8.640;2022-10-16T02:22:53;98860.88;;;11.35;100.00
54389;BME280;40975;50.390;8.640;2022-10-16T02:25:37;98856.25;;;11.38;100.00
54389;BME280;40975;50.390;8.640;2022-10-16T02:28:16;98857.06;;;11.38;100.00
54389;BME280;40975;50.390;8.640;2022-10-16T02:30:45;98865.84;;;11.39;100.00
54389;BME280;40975;50.390;8.640;2022-10-16T02:33:14;98854.56;;;11.37;100.00
54389;BME280;40975;50.390;8.640;2022-10-16T02:35:41;98854.41;;;11.38;100.00
54389;BME280;40975;50.390;8.640;2022-10-16T02:38:08;98863.06;;;11.40;100.00
54389;BME280;40975;50.390;8.640;2022-10-16T02:40:34;98857.75;;;11.40;100.00
54389;BME280;40975;50.390;8.640;2022-10-16T02:43:03;98854.44;;;11.46;100.00
54389;BME280;40975;50.390;8.640;2022-10-16T02:45:29;98854.63;;;11.53;100.00
54389;BME280;40975;50.390;8.640;2022-10-16T02:47:54;98857.13;;;11.55;100.00
54389;BME280;40975;50.390;8.640;2022-10-16T02:50:20;98859.47;;;11.58;100.00
54389;BME280;40975;50.390;8.640;2022-10-16T02:52:45;98856.50;;;11.61;100.00
54389;BME280;40975;50.390;8.640;2022-10-16T02:55:10;98862.34;;;11.64;100.00
54389;BME280;40975;50.390;8.640;2022-10-16T02:57:36;98876.94;;;11.69;100.00
54389;BME280;40975;50.390;8.640;2022-10-16T03:00:06;98883.81;;;11.71;100.00
54389;BME280;40975;50.390;8.640;2022-10-16T03:02:32;98883.47;;;11.74;100.00
54389;BME280;40975;50.390;8.640;2022-10-16T03:04:57;98881.47;;;11.76;100.00
54389;BME280;40975;50.390;8.640;2022-10-16T03:07:22;98882.34;;;11.77;100.00
54389;BME280;40975;50.390;8.640;2022-10-16T03:09:48;98890.66;;;11.82;100.00
54389;BME280;40975;50.390;8.640;2022-10-16T03:12:13;98895.78;;;11.83;100.00
54389;BME280;40975;50.390;8.640;2022-10-16T03:14:38;98900.81;;;11.87;100.00
54389;BME280;40975;50.390;8.640;2022-10-16T03:17:05;98901.66;;;11.87;100.00
54389;BME280;40975;50.390;8.640;2022-10-16T03:19:30;98910.28;;;11.89;100.00
54389;BME280;40975;50.390;8.640;2022-10-16T03:21:55;98913.31;;;11.94;100.00
54389;BME280;40975;50.390;8.640;2022-10-16T03:24:21;98918.34;;;11.97;100.00
54389;BME280;40975;50.390;8.640;2022-10-16T03:26:46;98904.88;;;11.99;100.00
54389;BME280;40975;50.390;8.640;2022-10-16T03:29:11;98906.19;;;12.03;100.00
54389;BME280;40975;50.390;8.640;2022-10-16T03:31:36;98914.72;;;12.07;100.00
54389;BME280;40975;50.390;8.640;2022-10-16T03:34:02;98914.84;;;12.05;100.00
54389;BME280;40975;50.390;8.640;2022-10-16T03:36:27;98905.41;;;12.11;100.00
54389;BME280;40975;50.390;8.640;2022-10-16T03:38:52;98895.44;;;12.13;100.00
54389;BME280;40975;50.390;8.640;2022-10-16T03:41:18;98893.28;;;12.17;100.00
54389;BME280;40975;50.390;8.640;2022-10-16T03:43:43;98900.28;;;12.18;100.00
54389;BME280;40975;50.390;8.640;2022-10-16T03:46:09;98897.59;;;12.18;100.00
54389;BME280;40975;50.390;8.640;2022-10-16T03:48:34;98896.78;;;12.17;100.00
54389;BME280;40975;50.390;8.640;2022-10-16T03:50:59;98899.94;;;12.12;100.00
54389;BME280;40975;50.390;8.640;2022-10-16T03:53:25;98911.41;;;12.13;100.00
54389;BME280;40975;50.390;8.640;2022-10-16T03:55:50;98908.56;;;12.15;100.00
54389;BME280;40975;50.390;8.640;2022-10-16T03:58:16;98909.41;;;12.15;100.00
54389;BME280;40975;50.390;8.640;2022-10-16T04:00:42;98904.78;;;12.17;100.00
54389;BME280;40975;50.390;8.640;2022-10-16T04:03:07;98905.41;;;12.19;100.00
54389;BME280;40975;50.390;8.640;2022-10-16T04:05:33;98920.56;;;12.19;100.00
54389;BME280;40975;50.390;8.640;2022-10-16T04:07:59;98919.06;;;12.16;100.00
54389;BME280;40975;50.390;8.640;2022-10-16T04:10:24;98920.56;;;12.19;100.00
54389;BME280;40975;50.390;8.640;2022-10-16T04:12:50;98917.06;;;12.18;100.00
54389;BME280;40975;50.390;8.640;2022-10-16T04:15:15;98919.72;;;12.18;100.00
54389;BME280;40975;50.390;8.640;2022-10-16T04:17:40;98925.88;;;12.19;100.00
54389;BME280;40975;50.390;8.640;2022-10-16T04:20:06;98945.50;;;12.18;100.00
54389;BME280;40975;50.390;8.640;2022-10-16T04:22:31;98946.47;;;12.17;100.00
54389;BME280;40975;50.390;8.640;2022-10-16T04:24:56;98951.81;;;12.17;100.00
54389;BME280;40975;50.390;8.640;2022-10-16T04:27:22;98955.47;;;12.16;100.00
54389;BME280;40975;50.390;8.640;2022-10-16T04:29:47;98951.97;;;12.15;100.00
54389;BME280;40975;50.390;8.640;2022-10-16T04:32:12;98945.97;;;12.13;100.00
54389;BME280;40975;50.390;8.640;2022-10-16T04:34:39;98946.16;;;12.11;100.00
54389;BME280;40975;50.390;8.640;2022-10-16T04:37:05;98942.81;;;12.09;100.00
54389;BME280;40975;50.390;8.640;2022-10-16T04:39:30;98944.47;;;12.10;100.00
54389;BME280;40975;50.390;8.640;2022-10-16T04:41:55;98953.13;;;12.12;100.00
54389;BME280;40975;50.390;8.640;2022-10-16T04:44:21;98938.97;;;12.04;100.00
54389;BME280;40975;50.390;8.640;2022-10-16T04:46:47;98945.81;;;12.15;100.00
54389;BME280;40975;50.390;8.640;2022-10-16T04:49:12;98949.31;;;12.15;100.00
54389;BME280;40975;50.390;8.640;2022-10-16T04:51:38;98953.78;;;12.15;100.00
54389;BME280;40975;50.390;8.640;2022-10-16T04:54:03;98945.81;;;12.15;100.00
54389;BME280;40975;50.390;8.640;2022-10-16T04:56:28;98942.50;;;12.12;100.00
54389;BME280;40975;50.390;8.640;2022-10-16T04:58:54;98941.66;;;12.12;100.00
54389;BME280;40975;50.390;8.640;2022-10-16T05:01:19;98938.31;;;12.10;100.00
54389;BME280;40975;50.390;8.640;2022-10-16T05:03:45;98935.81;;;12.08;100.00
54389;BME280;40975;50.390;8.640;2022-10-16T05:06:10;98945.00;;;12.14;100.00
54389;BME280;40975;50.390;8.640;2022-10-16T05:08:36;98946.66;;;12.15;100.00
54389;BME280;40975;50.390;8.640;2022-10-16T05:11:01;98947.66;;;12.14;100.00
54389;BME280;40975;50.390;8.640;2022-10-16T05:13:27;98950.31;;;12.14;100.00
54389;BME280;40975;50.390;8.640;2022-10-16T05:15:52;98945.97;;;12.13;100.00
54389;BME280;40975;50.390;8.640;2022-10-16T05:18:18;98944.47;;;12.10;100.00
54389;BME280;40975;50.390;8.640;2022-10-16T05:20:43;98940.28;;;12.08;100.00
54389;BME280;40975;50.390;8.640;2022-10-16T05:23:09;98941.44;;;12.05;100.00
54389;BME280;40975;50.390;8.640;2022-10-16T05:25:36;98942.44;;;12.04;100.00
54389;BME280;40975;50.390;8.640;2022-10-16T05:28:01;98934.81;;;12.01;100.00
54389;BME280;40975;50.390;8.640;2022-10-16T05:30:27;98950.75;;;12.01;100.00
54389;BME280;40975;50.390;8.640;2022-10-16T05:32:52;98941.94;;;12.01;100.00
54389;BME280;40975;50.390;8.640;2022-10-16T05:35:18;98945.75;;;11.98;100.00
54389;BME280;40975;50.390;8.640;2022-10-16T05:37:44;98941.41;;;11.97;100.00
54389;BME280;40975;50.390;8.640;2022-10-16T05:40:10;98952.91;;;11.97;100.00
54389;BME280;40975;50.390;8.640;2022-10-16T05:42:36;98949.69;;;11.94;100.00
54389;BME280;40975;50.390;8.640;2022-10-16T05:45:03;98957.66;;;11.94;100.00
54389;BME280;40975;50.390;8.640;2022-10-16T05:47:29;98954.69;;;11.97;100.00
54389;BME280;40975;50.390;8.640;2022-10-16T05:49:54;98954.69;;;11.97;100.00
54389;BME280;40975;50.390;8.640;2022-10-16T05:52:20;98966.03;;;11.99;100.00
54389;BME280;40975;50.390;8.640;2022-10-16T05:54:45;98966.72;;;12.01;100.00
54389;BME280;40975;50.390;8.640;2022-10-16T05:57:11;98974.34;;;12.04;100.00
54389;BME280;40975;50.390;8.640;2022-10-16T05:59:36;98964.72;;;12.03;100.00
54389;BME280;40975;50.390;8.640;2022-10-16T06:02:02;98952.09;;;12.05;100.00
54389;BME280;40975;50.390;8.640;2022-10-16T06:04:27;98950.41;;;12.04;100.00
54389;BME280;40975;50.390;8.640;2022-10-16T06:06:52;98964.41;;;12.06;100.00
54389;BME280;40975;50.390;8.640;2022-10-16T06:09:17;98971.56;;;12.06;100.00
54389;BME280;40975;50.390;8.640;2022-10-16T06:11:43;98978.38;;;12.08;100.00
54389;BME280;40975;50.390;8.640;2022-10-16T06:14:08;98985.38;;;12.09;100.00
54389;BME280;40975;50.390;8.640;2022-10-16T06:16:37;98988.03;;;12.09;100.00
54389;BME280;40975;50.390;8.640;2022-10-16T06:19:03;98987.03;;;12.10;100.00
54389;BME280;40975;50.390;8.640;2022-10-16T06:21:31;98975.41;;;12.11;100.00
54389;BME280;40975;50.390;8.640;2022-10-16T06:23:57;98978.59;;;12.15;100.00
54389;BME280;40975;50.390;8.640;2022-10-16T06:26:26;98984.88;;;12.14;100.00
54389;BME280;40975;50.390;8.640;2022-10-16T06:28:54;98983.06;;;12.15;100.00
54389;BME280;40975;50.390;8.640;2022-10-16T06:31:19;98992.56;;;12.17;100.00
54389;BME280;40975;50.390;8.640;2022-10-16T06:33:45;98997.22;;;12.23;100.00
54389;BME280;40975;50.390;8.640;2022-10-16T06:36:15;98986.41;;;12.25;100.00
54389;BME280;40975;50.390;8.640;2022-10-16T06:38:40;98994.09;;;12.28;100.00
54389;BME280;40975;50.390;8.640;2022-10-16T06:41:07;99006.41;;;12.29;100.00
54389;BME280;40975;50.390;8.640;2022-10-16T06:43:33;99010.88;;;12.28;100.00
54389;BME280;40975;50.390;8.640;2022-10-16T06:46:01;99000.41;;;12.27;100.00
54389;BME280;40975;50.390;8.640;2022-10-16T06:48:27;99006.25;;;12.39;100.00
54389;BME280;40975;50.390;8.640;2022-10-16T06:53:23;99001.81;;;12.48;100.00
54389;BME280;40975;50.390;8.640;2022-10-16T06:55:48;98988.81;;;12.53;100.00
54389;BME280;40975;50.390;8.640;2022-10-16T06:58:14;98996.50;;;12.56;100.00
54389;BME280;40975;50.390;8.640;2022-10-16T07:00:39;98998.34;;;12.64;100.00
54389;BME280;40975;50.390;8.640;2022-10-16T07:03:04;99009.50;;;12.67;100.00
54389;BME280;40975;50.390;8.640;2022-10-16T07:05:30;99018.84;;;12.71;100.00
54389;BME280;40975;50.390;8.640;2022-10-16T07:07:55;99026.50;;;12.74;100.00
54389;BME280;40975;50.390;8.640;2022-10-16T07:10:20;99024.50;;;12.77;100.00
54389;BME280;40975;50.390;8.640;2022-10-16T07:12:49;99029.50;;;12.80;100.00
54389;BME280;40975;50.390;8.640;2022-10-16T07:15:14;99038.19;;;12.82;100.00
54389;BME280;40975;50.390;8.640;2022-10-16T07:17:40;99043.16;;;12.85;100.00
54389;BME280;40975;50.390;8.640;2022-10-16T07:20:05;99056.16;;;12.88;100.00
54389;BME280;40975;50.390;8.640;2022-10-16T07:22:31;99052.19;;;12.92;100.00
54389;BME280;40975;50.390;8.640;2022-10-16T07:24:57;99043.53;;;12.98;100.00
54389;BME280;40975;50.390;8.640;2022-10-16T07:27:22;99047.06;;;13.07;100.00
54389;BME280;40975;50.390;8.640;2022-10-16T07:29:49;99065.84;;;13.14;100.00
54389;BME280;40975;50.390;8.640;2022-10-16T07:32:14;99072.03;;;13.22;100.00
54389;BME280;40975;50.390;8.640;2022-10-16T07:34:39;99079.72;;;13.34;100.00
54389;BME280;40975;50.390;8.640;2022-10-16T07:37:05;99074.41;;;13.50;100.00
54389;BME280;40975;50.390;8.640;2022-10-16T07:39:30;99087.75;;;13.67;100.00
54389;BME280;40975;50.390;8.640;2022-10-16T07:41:55;99092.09;;;13.76;100.00
54389;BME280;40975;50.390;8.640;2022-10-16T07:44:21;99099.09;;;13.77;100.00
54389;BME280;40975;50.390;8.640;2022-10-16T07:46:46;99104.72;;;13.82;100.00
54389;BME280;40975;50.390;8.640;2022-10-16T07:49:11;99109.75;;;13.86;100.00
54389;BME280;40975;50.390;8.640;2022-10-16T07:51:37;99108.75;;;13.87;100.00
54389;BME280;40975;50.390;8.640;2022-10-16T07:54:03;99100.22;;;13.99;100.00
54389;BME280;40975;50.390;8.640;2022-10-16T07:56:30;99108.69;;;14.11;100.00
54389;BME280;40975;50.390;8.640;2022-10-16T07:58:55;99112.53;;;14.17;100.00
54389;BME280;40975;50.390;8.640;2022-10-16T08:01:21;99119.00;;;14.23;100.00
54389;BME280;40975;50.390;8.640;2022-10-16T08:03:49;99123.84;;;14.27;100.00
54389;BME280;40975;50.390;8.640;2022-10-16T08:06:15;99137.50;;;14.33;100.00
54389;BME280;40975;50.390;8.640;2022-10-16T08:08:40;99133.50;;;14.37;100.00
54389;BME280;40975;50.390;8.640;2022-10-16T08:11:06;99133.84;;;14.42;100.00
54389;BME280;40975;50.390;8.640;2022-10-16T08:13:32;99131.66;;;14.45;100.00
54389;BME280;40975;50.390;8.640;2022-10-16T08:15:57;99131.50;;;14.39;100.00
54389;BME280;40975;50.390;8.640;2022-10-16T08:18:23;99149.34;;;14.46;100.00
54389;BME280;40975;50.390;8.640;2022-10-16T08:20:55;99152.50;;;14.50;100.00
54389;BME280;40975;50.390;8.640;2022-10-16T08:23:20;99159.31;;;14.53;100.00
54389;BME280;40975;50.390;8.640;2022-10-16T08:25:46;99155.94;;;14.59;100.00
54389;BME280;40975;50.390;8.640;2022-10-16T08:28:11;99159.63;;;14.66;100.00
54389;BME280;40975;50.390;8.640;2022-10-16T08:30:37;99173.97;;;14.73;100.00
54389;BME280;40975;50.390;8.640;2022-10-16T08:33:02;99171.13;;;14.75;100.00
54389;BME280;40975;50.390;8.640;2022-10-16T08:35:28;99172.47;;;14.79;100.00
54389;BME280;40975;50.390;8.640;2022-10-16T08:37:54;99178.47;;;14.81;100.00
54389;BME280;40975;50.390;8.640;2022-10-16T08:40:23;99166.41;;;14.85;100.00
54389;BME280;40975;50.390;8.640;2022-10-16T08:45:41;99176.44;;;14.91;100.00
54389;BME280;40975;50.390;8.640;2022-10-16T08:48:27;99174.72;;;14.99;100.00
54389;BME280;40975;50.390;8.640;2022-10-16T08:50:54;99184.13;;;15.18;100.00
54389;BME280;40975;50.390;8.640;2022-10-16T08:53:54;99187.16;;;15.46;100.00
54389;BME280;40975;50.390;8.640;2022-10-16T08:56:20;99186.69;;;15.66;100.00
54389;BME280;40975;50.390;8.640;2022-10-16T08:58:46;99178.63;;;15.97;100.00
54389;BME280;40975;50.390;8.640;2022-10-16T09:01:15;99176.41;;;16.39;100.00
54389;BME280;40975;50.390;8.640;2022-10-16T09:04:21;99180.03;;;16.76;100.00
54389;BME280;40975;50.390;8.640;2022-10-16T09:07:15;99184.28;;;17.52;100.00
54389;BME280;40975;50.390;8.640;2022-10-16T09:12:36;99184.09;;;19.31;100.00
54389;BME280;40975;50.390;8.640;2022-10-16T09:15:16;99188.00;;;20.17;100.00
54389;BME280;40975;50.390;8.640;2022-10-16T09:23:34;99199.59;;;19.16;100.00
54389;BME280;40975;50.390;8.640;2022-10-16T09:26:01;99207.44;;;18.82;100.00
54389;BME280;40975;50.390;8.640;2022-10-16T09:28:27;99204.78;;;18.54;100.00
54389;BME280;40975;50.390;8.640;2022-10-16T09:30:53;99211.69;;;18.63;100.00
54389;BME280;40975;50.390;8.640;2022-10-16T09:33:21;99214.31;;;19.26;100.00
54389;BME280;40975;50.390;8.640;2022-10-16T09:35:53;99220.84;;;19.72;100.00
54389;BME280;40975;50.390;8.640;2022-10-16T09:38:30;99221.25;;;19.07;100.00
54389;BME280;40975;50.390;8.640;2022-10-16T09:40:57;99217.34;;;18.46;100.00
54389;BME280;40975;50.390;8.640;2022-10-16T09:43:39;99221.41;;;17.92;100.00
54389;BME280;40975;50.390;8.640;2022-10-16T09:46:07;99220.78;;;17.90;100.00
54389;BME280;40975;50.390;8.640;2022-10-16T09:48:36;99226.44;;;17.59;100.00
54389;BME280;40975;50.390;8.640;2022-10-16T09:51:04;99226.56;;;17.72;100.00
54389;BME280;40975;50.390;8.640;2022-10-16T09:53:43;99228.03;;;17.75;100.00
54389;BME280;40975;50.390;8.640;2022-10-16T09:56:11;99235.19;;;17.67;100.00
54389;BME280;40975;50.390;8.640;2022-10-16T09:58:42;99244.75;;;17.55;100.00
54389;BME280;40975;50.390;8.640;2022-10-16T10:01:13;99247.59;;;17.32;100.00
54389;BME280;40975;50.390;8.640;2022-10-16T10:03:41;99247.34;;;17.27;100.00
54389;BME280;40975;50.390;8.640;2022-10-16T10:06:17;99253.16;;;17.30;100.00
54389;BME280;40975;50.390;8.640;2022-10-16T10:11:54;99250.47;;;17.88;100.00
54389;BME280;40975;50.390;8.640;2022-10-16T10:14:40;99243.53;;;18.38;100.00
54389;BME280;40975;50.390;8.640;2022-10-16T10:19:58;99237.56;;;18.42;100.00
54389;BME280;40975;50.390;8.640;2022-10-16T10:22:44;99237.50;;;18.36;100.00
54389;BME280;40975;50.390;8.640;2022-10-16T10:30:38;99238.09;;;18.31;100.00
54389;BME280;40975;50.390;8.640;2022-10-16T10:33:25;99244.75;;;18.63;100.00
54389;BME280;40975;50.390;8.640;2022-10-16T10:42:11;99247.03;;;18.67;100.00
54389;BME280;40975;50.390;8.640;2022-10-16T10:44:55;99255.84;;;19.66;100.00
54389;BME280;40975;50.390;8.640;2022-10-16T10:47:45;99257.88;;;19.57;100.00
54389;BME280;40975;50.390;8.640;2022-10-16T10:50:25;99246.00;;;20.47;100.00
54389;BME280;40975;50.390;8.640;2022-10-16T10:53:05;99241.72;;;22.34;100.00
54389;BME280;40975;50.390;8.640;2022-10-16T10:55:43;99245.50;;;22.59;100.00
54389;BME280;40975;50.390;8.640;2022-10-16T11:01:04;99248.03;;;23.35;95.26
54389;BME280;40975;50.390;8.640;2022-10-16T11:06:25;99232.91;;;23.27;96.01
54389;BME280;40975;50.390;8.640;2022-10-16T11:09:18;99229.84;;;23.23;97.00
54389;BME280;40975;50.390;8.640;2022-10-16T11:11:53;99228.78;;;23.06;96.71
54389;BME280;40975;50.390;8.640;2022-10-16T11:14:23;99229.06;;;23.16;95.65
54389;BME280;40975;50.390;8.640;2022-10-16T11:16:58;99230.56;;;23.12;94.17
54389;BME280;40975;50.390;8.640;2022-10-16T11:19:41;99215.84;;;23.08;94.89
54389;BME280;40975;50.390;8.640;2022-10-16T11:27:09;99222.63;;;22.98;93.90
54389;BME280;40975;50.390;8.640;2022-10-16T11:29:46;99223.41;;;21.79;99.66
54389;BME280;40975;50.390;8.640;2022-10-16T11:32:42;99230.19;;;21.04;100.00
54389;BME280;40975;50.390;8.640;2022-10-16T11:35:15;99236.34;;;21.25;100.00
54389;BME280;40975;50.390;8.640;2022-10-16T11:37:44;99232.56;;;21.78;99.25
54389;BME280;40975;50.390;8.640;2022-10-16T11:40:25;99224.53;;;21.97;97.91
54389;BME280;40975;50.390;8.640;2022-10-16T11:43:31;99227.16;;;22.35;100.00
54389;BME280;40975;50.390;8.640;2022-10-16T11:46:05;99221.97;;;21.77;95.93
54389;BME280;40975;50.390;8.640;2022-10-16T11:48:39;99217.03;;;22.75;92.69
54389;BME280;40975;50.390;8.640;2022-10-16T11:51:24;99218.66;;;22.32;94.25
54389;BME280;40975;50.390;8.640;2022-10-16T11:54:00;99219.47;;;22.07;96.90
54389;BME280;40975;50.390;8.640;2022-10-16T11:56:27;99219.94;;;22.29;99.45
54389;BME280;40975;50.390;8.640;2022-10-16T11:58:59;99217.56;;;21.89;96.92
54389;BME280;40975;50.390;8.640;2022-10-16T12:01:57;99216.53;;;21.83;97.82
54389;BME280;40975;50.390;8.640;2022-10-16T12:04:46;99223.84;;;21.37;99.71
54389;BME280;40975;50.390;8.640;2022-10-16T12:07:22;99223.03;;;21.30;100.00
54389;BME280;40975;50.390;8.640;2022-10-16T12:09:49;99221.94;;;21.38;100.00
54389;BME280;40975;50.390;8.640;2022-10-16T12:15:01;99226.94;;;21.34;100.00
54389;BME280;40975;50.390;8.640;2022-10-16T12:17:37;99234.56;;;20.92;100.00
54389;BME280;40975;50.390;8.640;2022-10-16T12:22:48;99231.88;;;20.72;100.00
54389;BME280;40975;50.390;8.640;2022-10-16T12:25:36;99240.63;;;20.54;100.00
54389;BME280;40975;50.390;8.640;2022-10-16T12:28:21;99240.44;;;20.15;100.00
54389;BME280;40975;50.390;8.640;2022-10-16T12:31:13;99240.00;;;20.04;100.00
54389;BME280;40975;50.390;8.640;2022-10-16T12:33:58;99241.63;;;19.85;100.00
54389;BME280;40975;50.390;8.640;2022-10-16T12:36:42;99238.34;;;19.97;100.00
54389;BME280;40975;50.390;8.640;2022-10-16T12:39:20;99234.84;;;20.23;100.00
54389;BME280;40975;50.390;8.640;2022-10-16T12:41:47;99231.50;;;19.94;100.00
54389;BME280;40975;50.390;8.640;2022-10-16T12:44:23;99222.16;;;19.90;100.00
54389;BME280;40975;50.390;8.640;2022-10-16T12:46:49;99228.09;;;19.65;100.00
54389;BME280;40975;50.390;8.640;2022-10-16T12:51:52;99245.03;;;19.04;100.00
54389;BME280;40975;50.390;8.640;2022-10-16T12:54:50;99257.19;;;18.93;100.00
54389;BME280;40975;50.390;8.640;2022-10-16T13:00:43;99260.91;;;18.70;100.00
54389;BME280;40975;50.390;8.640;2022-10-16T13:06:13;99263.91;;;18.54;100.00
54389;BME280;40975;50.390;8.640;2022-10-16T13:14:43;99276.72;;;18.52;100.00
54389;BME280;40975;50.390;8.640;2022-10-16T13:22:25;99281.00;;;18.24;100.00
54389;BME280;40975;50.390;8.640;2022-10-16T13:24:59;99266.91;;;18.15;100.00
54389;BME280;40975;50.390;8.640;2022-10-16T13:27:54;99268.38;;;18.18;100.00
54389;BME280;40975;50.390;8.640;2022-10-16T13:30:25;99267.06;;;18.14;100.00
54389;BME280;40975;50.390;8.640;2022-10-16T13:32:59;99254.16;;;18.24;100.00
54389;BME280;40975;50.390;8.640;2022-10-16T13:35:34;99266.69;;;18.39;100.00
54389;BME280;40975;50.390;8.640;2022-10-16T13:38:13;99267.25;;;18.62;100.00
54389;BME280;40975;50.390;8.640;2022-10-16T13:40:51;99261.53;;;18.94;100.00
54389;BME280;40975;50.390;8.640;2022-10-16T13:43:19;99249.41;;;19.11;100.00
54389;BME280;40975;50.390;8.640;2022-10-16T13:46:02;99256.41;;;19.54;100.00
54389;BME280;40975;50.390;8.640;2022-10-16T13:48:29;99262.16;;;20.00;100.00
54389;BME280;40975;50.390;8.640;2022-10-16T13:51:05;99267.47;;;19.80;100.00
54389;BME280;40975;50.390;8.640;2022-10-16T13:53:33;99270.84;;;20.02;100.00
54389;BME280;40975;50.390;8.640;2022-10-16T13:55:59;99276.19;;;19.82;100.00
54389;BME280;40975;50.390;8.640;2022-10-16T13:58:27;99275.53;;;19.66;100.00
54389;BME280;40975;50.390;8.640;2022-10-16T14:00:55;99273.34;;;19.97;100.00
54389;BME280;40975;50.390;8.640;2022-10-16T14:03:22;99273.78;;;20.14;100.00
54389;BME280;40975;50.390;8.640;2022-10-16T14:05:55;99275.84;;;20.12;100.00
54389;BME280;40975;50.390;8.640;2022-10-16T14:08:23;99268.16;;;19.88;100.00
54389;BME280;40975;50.390;8.640;2022-10-16T14:10:51;99272.72;;;19.95;100.00
54389;BME280;40975;50.390;8.640;2022-10-16T14:13:20;99261.97;;;20.08;100.00
54389;BME280;40975;50.390;8.640;2022-10-16T14:15:49;99264.00;;;19.93;100.00
54389;BME280;40975;50.390;8.640;2022-10-16T14:18:20;99266.63;;;19.72;100.00